sensor_id;sensor_type;location;lat;lon;timestamp;pressure;altitude;pressure_sealevel;temperature;humidity
43119;BME280;28729;49.838;8.650;2022-07-09T00:03:25;100930.91;;;17.08;70.98
43119;BME280;28729;49.838;8.650;2022-07-09T00:07:27;100929.19;;;17.02;70.79
43119;BME280;28729;49.838;8.650;2022-07-09T00:11:28;100936.38;;;16.98;71.34
43119;BME280;28729;49.838;8.650;2022-07-09T00:15:30;100932.47;;;16.94;71.64
43119;BME280;28729;49.838;8.650;2022-07-09T00:19:32;100919.91;;;16.91;72.08
43119;BME280;28729;49.838;8.650;2022-07-09T00:23:33;100919.84;;;16.86;72.63
43119;BME280;28729;49.838;8.650;2022-07-09T00:27:35;100918.44;;;16.83;72.69
43119;BME280;28729;49.838;8.650;2022-07-09T00:31:37;100908.94;;;16.79;73.06
43119;BME280;28729;49.838;8.650;2022-07-09T00:35:39;100912.84;;;16.78;73.57
43119;BME280;28729;49.838;8.650;2022-07-09T00:39:40;100910.31;;;16.77;73.78
43119;BME280;28729;49.838;8.650;2022-07-09T00:43:46;100901.63;;;16.73;74.16
43119;BME280;28729;49.838;8.650;2022-07-09T00:47:49;100907.19;;;16.73;74.63
43119;BME280;28729;49.838;8.650;2022-07-09T00:51:51;100898.53;;;16.70;74.34
43119;BME280;28729;49.838;8.650;2022-07-09T00:55:53;100895.16;;;16.68;74.40
43119;BME280;28729;49.838;8.650;2022-07-09T00:59:55;100886.50;;;16.64;74.60
43119;BME280;28729;49.838;8.650;2022-07-09T01:03:57;100892.59;;;16.61;74.91
43119;BME280;28729;49.838;8.650;2022-07-09T01:07:59;100883.69;;;16.59;74.90
43119;BME280;28729;49.838;8.650;2022-07-09T01:12:01;100880.59;;;16.55;75.54
43119;BME280;28729;49.838;8.650;2022-07-09T01:16:03;100883.66;;;16.54;76.03
43119;BME280;28729;49.838;8.650;2022-07-09T01:20:05;100873.34;;;16.54;76.68
43119;BME280;28729;49.838;8.650;2022-07-09T01:24:08;100880.59;;;16.55;77.00
43119;BME280;28729;49.838;8.650;2022-07-09T01:28:09;100869.75;;;16.59;76.61
43119;BME280;28729;49.838;8.650;2022-07-09T01:32:11;100869.22;;;16.57;76.95
43119;BME280;28729;49.838;8.650;2022-07-09T01:36:13;100866.16;;;16.58;77.14
43119;BME280;28729;49.838;8.650;2022-07-09T01:40:15;100865.03;;;16.59;77.36
43119;BME280;28729;49.838;8.650;2022-07-09T01:44:16;100857.53;;;16.60;77.38
43119;BME280;28729;49.838;8.650;2022-07-09T01:48:18;100854.75;;;16.60;77.53
43119;BME280;28729;49.838;8.650;2022-07-09T01:52:20;100851.97;;;16.60;77.19
43119;BME280;28729;49.838;8.650;2022-07-09T01:56:21;100849.72;;;16.57;77.33
43119;BME280;28729;49.838;8.650;2022-07-09T02:00:23;100846.59;;;16.53;78.03
43119;BME280;28729;49.838;8.650;2022-07-09T02:04:25;100841.03;;;16.48;78.27
43119;BME280;28729;49.838;8.650;2022-07-09T02:08:26;100842.91;;;16.43;78.59
43119;BME280;28729;49.838;8.650;2022-07-09T02:12:28;100841.97;;;16.32;78.96
43119;BME280;28729;49.838;8.650;2022-07-09T02:16:30;100839.34;;;16.20;79.75
43119;BME280;28729;49.838;8.650;2022-07-09T02:20:32;100845.66;;;16.10;80.56
43119;BME280;28729;49.838;8.650;2022-07-09T02:24:34;100846.41;;;16.06;81.42
43119;BME280;28729;49.838;8.650;2022-07-09T02:28:35;100845.84;;;16.04;81.11
43119;BME280;28729;49.838;8.650;2022-07-09T02:32:38;100839.47;;;16.03;81.38
43119;BME280;28729;49.838;8.650;2022-07-09T02:36:40;100845.03;;;16.03;81.37
43119;BME280;28729;49.838;8.650;2022-07-09T02:40:42;100843.84;;;15.99;81.59
43119;BME280;28729;49.838;8.650;2022-07-09T02:44:43;100848.25;;;15.95;82.15
43119;BME280;28729;49.838;8.650;2022-07-09T02:48:45;100843.00;;;15.99;81.93
43119;BME280;28729;49.838;8.650;2022-07-09T02:52:47;100840.22;;;15.99;82.51
43119;BME280;28729;49.838;8.650;2022-07-09T02:56:48;100848.56;;;15.99;82.49
43119;BME280;28729;49.838;8.650;2022-07-09T03:00:50;100845.19;;;15.97;82.51
43119;BME280;28729;49.838;8.650;2022-07-09T03:04:52;100837.97;;;15.95;83.33
43119;BME280;28729;49.838;8.650;2022-07-09T03:08:54;100841.34;;;15.98;82.58
43119;BME280;28729;49.838;8.650;2022-07-09T03:12:55;100834.59;;;15.93;82.55
43119;BME280;28729;49.838;8.650;2022-07-09T03:16:57;100834.59;;;15.93;82.89
43119;BME280;28729;49.838;8.650;2022-07-09T03:20:59;100839.31;;;15.93;82.86
43119;BME280;28729;49.838;8.650;2022-07-09T03:25:01;100836.75;;;15.86;83.07
43119;BME280;28729;49.838;8.650;2022-07-09T03:29:03;100842.84;;;15.83;83.49
43119;BME280;28729;49.838;8.650;2022-07-09T03:33:05;100843.34;;;15.80;83.46
43119;BME280;28729;49.838;8.650;2022-07-09T03:37:06;100838.03;;;15.79;83.88
43119;BME280;28729;49.838;8.650;2022-07-09T03:41:08;100833.91;;;15.81;84.21
43119;BME280;28729;49.838;8.650;2022-07-09T03:45:10;100833.66;;;15.83;84.17
43119;BME280;28729;49.838;8.650;2022-07-09T03:49:12;100835.84;;;15.81;84.18
43119;BME280;28729;49.838;8.650;2022-07-09T03:53:14;100832.56;;;15.84;83.98
43119;BME280;28729;49.838;8.650;2022-07-09T03:57:16;100837.84;;;15.85;84.46
43119;BME280;28729;49.838;8.650;2022-07-09T04:01:18;100834.28;;;15.90;84.40
43119;BME280;28729;49.838;8.650;2022-07-09T04:05:20;100841.28;;;15.92;84.55
43119;BME280;28729;49.838;8.650;2022-07-09T04:09:22;100831.81;;;15.93;84.43
43119;BME280;28729;49.838;8.650;2022-07-09T04:13:23;100840.75;;;15.95;84.50
43119;BME280;28729;49.838;8.650;2022-07-09T04:17:25;100842.50;;;16.02;84.39
43119;BME280;28729;49.838;8.650;2022-07-09T04:21:27;100833.09;;;16.08;84.38
43119;BME280;28729;49.838;8.650;2022-07-09T04:25:29;100828.69;;;16.12;84.50
43119;BME280;28729;49.838;8.650;2022-07-09T04:29:30;100834.31;;;16.17;84.51
43119;BME280;28729;49.838;8.650;2022-07-09T04:33:32;100832.69;;;16.21;84.39
43119;BME280;28729;49.838;8.650;2022-07-09T04:37:34;100839.41;;;16.25;84.63
43119;BME280;28729;49.838;8.650;2022-07-09T04:41:35;100838.06;;;16.33;84.49
43119;BME280;28729;49.838;8.650;2022-07-09T04:45:38;100835.66;;;16.41;84.60
43119;BME280;28729;49.838;8.650;2022-07-09T04:49:40;100840.22;;;16.53;84.30
43119;BME280;28729;49.838;8.650;2022-07-09T04:53:41;100837.00;;;16.66;83.92
43119;BME280;28729;49.838;8.650;2022-07-09T04:57:43;100829.06;;;16.80;83.84
43119;BME280;28729;49.838;8.650;2022-07-09T05:01:45;100829.16;;;16.95;83.76
43119;BME280;28729;49.838;8.650;2022-07-09T05:05:47;100828.75;;;17.14;83.13
43119;BME280;28729;49.838;8.650;2022-07-09T05:09:51;100835.84;;;17.31;82.48
43119;BME280;28729;49.838;8.650;2022-07-09T05:13:53;100834.78;;;17.48;81.82
43119;BME280;28729;49.838;8.650;2022-07-09T05:17:54;100830.97;;;17.64;81.75
43119;BME280;28729;49.838;8.650;2022-07-09T05:21:56;100827.97;;;17.76;81.05
43119;BME280;28729;49.838;8.650;2022-07-09T05:25:58;100831.38;;;17.88;80.70
43119;BME280;28729;49.838;8.650;2022-07-09T05:30:00;100835.59;;;18.01;80.54
43119;BME280;28729;49.838;8.650;2022-07-09T05:34:02;100830.56;;;18.08;80.25
43119;BME280;28729;49.838;8.650;2022-07-09T05:38:04;100828.94;;;18.12;80.10
43119;BME280;28729;49.838;8.650;2022-07-09T05:42:06;100823.91;;;18.14;79.87
43119;BME280;28729;49.838;8.650;2022-07-09T05:46:08;100824.22;;;18.18;79.82
43119;BME280;28729;49.838;8.650;2022-07-09T05:50:10;100832.03;;;18.21;79.54
43119;BME280;28729;49.838;8.650;2022-07-09T05:54:11;100831.19;;;18.20;79.37
43119;BME280;28729;49.838;8.650;2022-07-09T05:58:15;100830.31;;;18.20;78.68
43119;BME280;28729;49.838;8.650;2022-07-09T06:02:17;100832.00;;;18.16;78.08
43119;BME280;28729;49.838;8.650;2022-07-09T06:06:20;100828.41;;;18.20;77.49
43119;BME280;28729;49.838;8.650;2022-07-09T06:10:22;100836.75;;;18.26;77.21
43119;BME280;28729;49.838;8.650;2022-07-09T06:14:24;100836.78;;;18.31;77.02
43119;BME280;28729;49.838;8.650;2022-07-09T06:18:28;100838.47;;;18.37;76.71
43119;BME280;28729;49.838;8.650;2022-07-09T06:22:30;100830.38;;;18.45;76.44
43119;BME280;28729;49.838;8.650;2022-07-09T06:26:32;100836.25;;;18.59;76.14
43119;BME280;28729;49.838;8.650;2022-07-09T06:30:35;100840.19;;;18.74;75.80
43119;BME280;28729;49.838;8.650;2022-07-09T06:34:36;100848.28;;;18.90;75.29
43119;BME280;28729;49.838;8.650;2022-07-09T06:38:38;100843.50;;;19.11;74.09
43119;BME280;28729;49.838;8.650;2022-07-09T06:43:00;100843.47;;;19.27;73.50
43119;BME280;28729;49.838;8.650;2022-07-09T06:47:18;100847.03;;;19.53;73.19
43119;BME280;28729;49.838;8.650;2022-07-09T06:51:19;100854.00;;;19.76;72.01
43119;BME280;28729;49.838;8.650;2022-07-09T06:55:21;100848.00;;;19.98;71.01
43119;BME280;28729;49.838;8.650;2022-07-09T06:59:23;100848.72;;;20.24;70.95
43119;BME280;28729;49.838;8.650;2022-07-09T07:03:26;100849.41;;;20.45;70.12
43119;BME280;28729;49.838;8.650;2022-07-09T07:07:28;100856.78;;;20.70;68.84
43119;BME280;28729;49.838;8.650;2022-07-09T07:11:30;100858.56;;;20.95;67.51
43119;BME280;28729;49.838;8.650;2022-07-09T07:15:31;100858.56;;;21.24;66.97
43119;BME280;28729;49.838;8.650;2022-07-09T07:19:33;100855.34;;;21.65;65.26
43119;BME280;28729;49.838;8.650;2022-07-09T07:23:35;100846.28;;;22.16;62.59
43119;BME280;28729;49.838;8.650;2022-07-09T07:27:36;100840.19;;;22.66;61.83
43119;BME280;28729;49.838;8.650;2022-07-09T07:31:38;100837.56;;;22.88;60.97
43119;BME280;28729;49.838;8.650;2022-07-09T07:35:40;100836.13;;;22.91;60.91
43119;BME280;28729;49.838;8.650;2022-07-09T07:39:42;100843.19;;;22.88;60.26
43119;BME280;28729;49.838;8.650;2022-07-09T07:43:44;100837.59;;;22.69;60.26
43119;BME280;28729;49.838;8.650;2022-07-09T07:47:46;100838.81;;;22.82;59.98
43119;BME280;28729;49.838;8.650;2022-07-09T07:51:48;100844.31;;;23.20;59.29
43119;BME280;28729;49.838;8.650;2022-07-09T07:55:50;100833.34;;;23.51;58.19
43119;BME280;28729;49.838;8.650;2022-07-09T07:59:51;100839.72;;;23.98;56.40
43119;BME280;28729;49.838;8.650;2022-07-09T08:03:53;100832.47;;;24.20;55.04
43119;BME280;28729;49.838;8.650;2022-07-09T08:07:55;100830.81;;;24.41;54.24
43119;BME280;28729;49.838;8.650;2022-07-09T08:11:56;100824.13;;;24.51;53.46
43119;BME280;28729;49.838;8.650;2022-07-09T08:15:58;100829.09;;;24.68;51.94
43119;BME280;28729;49.838;8.650;2022-07-09T08:20:02;100816.66;;;24.69;51.74
43119;BME280;28729;49.838;8.650;2022-07-09T08:24:04;100811.28;;;24.59;52.12
43119;BME280;28729;49.838;8.650;2022-07-09T08:28:07;100812.56;;;24.52;52.18
43119;BME280;28729;49.838;8.650;2022-07-09T08:32:09;100813.47;;;24.25;52.89
43119;BME280;28729;49.838;8.650;2022-07-09T08:36:11;100811.41;;;24.17;53.68
43119;BME280;28729;49.838;8.650;2022-07-09T08:40:13;100811.81;;;24.24;53.17
43119;BME280;28729;49.838;8.650;2022-07-09T08:44:17;100800.47;;;24.38;52.77
43119;BME280;28729;49.838;8.650;2022-07-09T08:48:20;100794.69;;;24.79;51.38
43119;BME280;28729;49.838;8.650;2022-07-09T08:52:23;100791.09;;;24.88;50.26
43119;BME280;28729;49.838;8.650;2022-07-09T08:56:25;100785.47;;;24.88;50.58
43119;BME280;28729;49.838;8.650;2022-07-09T09:00:27;100795.38;;;24.63;49.69
43119;BME280;28729;49.838;8.650;2022-07-09T09:04:28;100789.69;;;24.99;49.13
43119;BME280;28729;49.838;8.650;2022-07-09T09:08:37;100781.28;;;25.48;49.03
43119;BME280;28729;49.838;8.650;2022-07-09T09:12:39;100776.84;;;25.55;47.23
43119;BME280;28729;49.838;8.650;2022-07-09T09:16:41;100776.63;;;25.91;45.38
43119;BME280;28729;49.838;8.650;2022-07-09T09:20:44;100773.63;;;26.23;44.46
43119;BME280;28729;49.838;8.650;2022-07-09T09:24:50;100777.78;;;26.43;43.96
43119;BME280;28729;49.838;8.650;2022-07-09T09:28:57;100761.84;;;26.03;44.66
43119;BME280;28729;49.838;8.650;2022-07-09T09:33:02;100776.03;;;25.72;45.56
43119;BME280;28729;49.838;8.650;2022-07-09T09:37:04;100771.72;;;25.66;46.23
43119;BME280;28729;49.838;8.650;2022-07-09T09:41:06;100756.00;;;26.00;45.41
43119;BME280;28729;49.838;8.650;2022-07-09T09:45:08;100761.84;;;26.29;44.26
43119;BME280;28729;49.838;8.650;2022-07-09T09:49:12;100745.81;;;26.86;43.16
43119;BME280;28729;49.838;8.650;2022-07-09T09:53:16;100750.81;;;27.36;42.49
43119;BME280;28729;49.838;8.650;2022-07-09T09:57:21;100750.75;;;27.15;41.22
43119;BME280;28729;49.838;8.650;2022-07-09T10:01:27;100738.25;;;26.51;41.97
43119;BME280;28729;49.838;8.650;2022-07-09T10:05:31;100735.41;;;26.69;41.95
43119;BME280;28729;49.838;8.650;2022-07-09T10:09:34;100746.31;;;26.88;42.09
43119;BME280;28729;49.838;8.650;2022-07-09T10:13:49;100732.59;;;27.45;40.36
43119;BME280;28729;49.838;8.650;2022-07-09T10:17:54;100722.78;;;27.81;40.27
43119;BME280;28729;49.838;8.650;2022-07-09T10:21:58;100727.41;;;27.86;39.40
43119;BME280;28729;49.838;8.650;2022-07-09T10:26:00;100731.72;;;27.54;39.33
43119;BME280;28729;49.838;8.650;2022-07-09T10:30:02;100724.56;;;27.56;39.32
43119;BME280;28729;49.838;8.650;2022-07-09T10:34:07;100719.88;;;27.60;39.35
43119;BME280;28729;49.838;8.650;2022-07-09T10:38:12;100712.19;;;28.11;38.66
43119;BME280;28729;49.838;8.650;2022-07-09T10:42:18;100727.44;;;28.19;37.78
43119;BME280;28729;49.838;8.650;2022-07-09T10:46:22;100712.31;;;27.73;38.05
43119;BME280;28729;49.838;8.650;2022-07-09T10:50:30;100713.88;;;27.32;38.95
43119;BME280;28729;49.838;8.650;2022-07-09T10:54:33;100710.72;;;26.87;38.98
43119;BME280;28729;49.838;8.650;2022-07-09T10:58:35;100699.13;;;26.62;39.37
43119;BME280;28729;49.838;8.650;2022-07-09T11:02:37;100695.06;;;25.99;40.28
43119;BME280;28729;49.838;8.650;2022-07-09T11:06:45;100692.38;;;26.28;41.19
43119;BME280;28729;49.838;8.650;2022-07-09T11:10:50;100681.69;;;27.16;39.21
43119;BME280;28729;49.838;8.650;2022-07-09T11:14:52;100669.09;;;28.06;37.38
43119;BME280;28729;49.838;8.650;2022-07-09T11:18:54;100669.59;;;28.41;36.37
43119;BME280;28729;49.838;8.650;2022-07-09T11:22:56;100664.94;;;28.70;34.59
43119;BME280;28729;49.838;8.650;2022-07-09T11:27:05;100662.72;;;28.09;35.03
43119;BME280;28729;49.838;8.650;2022-07-09T11:31:07;100648.88;;;28.40;35.66
43119;BME280;28729;49.838;8.650;2022-07-09T11:35:10;100652.75;;;28.69;34.93
43119;BME280;28729;49.838;8.650;2022-07-09T11:39:49;100650.47;;;27.96;34.62
43119;BME280;28729;49.838;8.650;2022-07-09T11:43:52;100643.91;;;28.37;34.52
43119;BME280;28729;49.838;8.650;2022-07-09T11:48:08;100642.69;;;28.47;33.99
43119;BME280;28729;49.838;8.650;2022-07-09T11:52:19;100642.69;;;27.93;35.22
43119;BME280;28729;49.838;8.650;2022-07-09T11:56:22;100637.75;;;27.60;35.93
43119;BME280;28729;49.838;8.650;2022-07-09T12:00:28;100631.03;;;28.40;35.13
43119;BME280;28729;49.838;8.650;2022-07-09T12:04:30;100624.03;;;28.58;34.04
43119;BME280;28729;49.838;8.650;2022-07-09T12:08:32;100613.22;;;28.97;33.82
43119;BME280;28729;49.838;8.650;2022-07-09T12:12:35;100595.78;;;29.36;32.91
43119;BME280;28729;49.838;8.650;2022-07-09T12:16:37;100610.81;;;28.99;32.84
43119;BME280;28729;49.838;8.650;2022-07-09T12:20:39;100616.94;;;28.52;33.73
43119;BME280;28729;49.838;8.650;2022-07-09T12:24:41;100609.66;;;27.97;34.55
43119;BME280;28729;49.838;8.650;2022-07-09T12:28:44;100601.06;;;27.93;34.31
43119;BME280;28729;49.838;8.650;2022-07-09T12:32:46;100609.38;;;27.48;34.71
43119;BME280;28729;49.838;8.650;2022-07-09T12:36:49;100609.63;;;27.13;35.44
43119;BME280;28729;49.838;8.650;2022-07-09T12:41:00;100589.88;;;27.55;34.89
43119;BME280;28729;49.838;8.650;2022-07-09T12:45:03;100580.53;;;27.76;34.77
43119;BME280;28729;49.838;8.650;2022-07-09T12:49:11;100575.91;;;27.92;35.52
43119;BME280;28729;49.838;8.650;2022-07-09T12:53:13;100573.41;;;28.24;34.05
43119;BME280;28729;49.838;8.650;2022-07-09T12:57:15;100559.28;;;28.73;33.63
43119;BME280;28729;49.838;8.650;2022-07-09T13:01:17;100548.38;;;29.24;32.87
43119;BME280;28729;49.838;8.650;2022-07-09T13:05:20;100566.78;;;30.11;32.33
43119;BME280;28729;49.838;8.650;2022-07-09T13:09:22;100552.25;;;30.60;31.04
43119;BME280;28729;49.838;8.650;2022-07-09T13:13:24;100547.78;;;31.10;29.83
43119;BME280;28729;49.838;8.650;2022-07-09T13:17:26;100552.16;;;30.56;30.41
43119;BME280;28729;49.838;8.650;2022-07-09T13:21:32;100544.81;;;30.24;30.54
43119;BME280;28729;49.838;8.650;2022-07-09T13:25:35;100542.16;;;30.31;30.26
43119;BME280;28729;49.838;8.650;2022-07-09T13:29:37;100541.94;;;29.80;31.25
43119;BME280;28729;49.838;8.650;2022-07-09T13:33:39;100547.22;;;29.93;31.26
43119;BME280;28729;49.838;8.650;2022-07-09T13:37:40;100541.88;;;29.92;31.24
43119;BME280;28729;49.838;8.650;2022-07-09T13:41:42;100552.75;;;30.18;31.67
43119;BME280;28729;49.838;8.650;2022-07-09T13:45:44;100541.34;;;31.13;31.05
43119;BME280;28729;49.838;8.650;2022-07-09T13:49:46;100530.16;;;32.90;28.65
43119;BME280;28729;49.838;8.650;2022-07-09T13:53:48;100522.97;;;34.28;27.43
43119;BME280;28729;49.838;8.650;2022-07-09T13:57:50;100525.09;;;35.52;24.70
43119;BME280;28729;49.838;8.650;2022-07-09T14:02:02;100513.34;;;35.86;24.34
43119;BME280;28729;49.838;8.650;2022-07-09T14:06:06;100520.34;;;35.08;24.42
43119;BME280;28729;49.838;8.650;2022-07-09T14:10:28;100508.56;;;32.92;26.42
43119;BME280;28729;49.838;8.650;2022-07-09T14:14:32;100513.81;;;31.75;26.69
43119;BME280;28729;49.838;8.650;2022-07-09T14:18:33;100509.56;;;30.92;27.20
43119;BME280;28729;49.838;8.650;2022-07-09T14:22:36;100522.47;;;30.10;27.32
43119;BME280;28729;49.838;8.650;2022-07-09T14:26:37;100507.00;;;29.23;28.16
43119;BME280;28729;49.838;8.650;2022-07-09T14:30:41;100505.09;;;28.62;29.06
43119;BME280;28729;49.838;8.650;2022-07-09T14:34:43;100501.13;;;28.30;30.79
43119;BME280;28729;49.838;8.650;2022-07-09T14:38:45;100491.56;;;28.22;30.79
43119;BME280;28729;49.838;8.650;2022-07-09T14:42:46;100481.41;;;28.09;30.92
43119;BME280;28729;49.838;8.650;2022-07-09T14:46:48;100486.00;;;28.13;30.91
43119;BME280;28729;49.838;8.650;2022-07-09T14:50:51;100480.28;;;27.89;31.25
43119;BME280;28729;49.838;8.650;2022-07-09T14:54:53;100480.53;;;27.63;31.19
43119;BME280;28729;49.838;8.650;2022-07-09T14:58:55;100475.91;;;27.46;32.02
43119;BME280;28729;49.838;8.650;2022-07-09T15:02:57;100476.94;;;27.41;31.80
43119;BME280;28729;49.838;8.650;2022-07-09T15:06:59;100471.13;;;27.38;32.34
43119;BME280;28729;49.838;8.650;2022-07-09T15:11:01;100466.09;;;27.43;31.83
43119;BME280;28729;49.838;8.650;2022-07-09T15:15:03;100456.59;;;27.60;31.85
43119;BME280;28729;49.838;8.650;2022-07-09T15:19:05;100448.13;;;28.55;31.37
43119;BME280;28729;49.838;8.650;2022-07-09T15:23:06;100433.59;;;30.60;28.81
43119;BME280;28729;49.838;8.650;2022-07-09T15:27:08;100435.59;;;30.40;28.54
43119;BME280;28729;49.838;8.650;2022-07-09T15:31:10;100423.75;;;29.91;29.42
43119;BME280;28729;49.838;8.650;2022-07-09T15:35:11;100424.63;;;29.35;29.65
43119;BME280;28729;49.838;8.650;2022-07-09T15:39:14;100407.88;;;28.90;30.72
43119;BME280;28729;49.838;8.650;2022-07-09T15:43:16;100418.66;;;28.84;30.63
43119;BME280;28729;49.838;8.650;2022-07-09T15:47:17;100416.28;;;28.86;30.75
43119;BME280;28729;49.838;8.650;2022-07-09T15:51:21;100402.16;;;28.37;31.11
43119;BME280;28729;49.838;8.650;2022-07-09T15:55:25;100415.16;;;27.89;31.62
43119;BME280;28729;49.838;8.650;2022-07-09T15:59:27;100417.56;;;27.66;31.74
43119;BME280;28729;49.838;8.650;2022-07-09T16:03:30;100410.78;;;27.34;31.73
43119;BME280;28729;49.838;8.650;2022-07-09T16:07:33;100406.63;;;27.10;32.28
43119;BME280;28729;49.838;8.650;2022-07-09T16:11:35;100396.44;;;26.76;32.49
43119;BME280;28729;49.838;8.650;2022-07-09T16:15:56;100396.09;;;26.56;33.17
43119;BME280;28729;49.838;8.650;2022-07-09T16:19:57;100393.88;;;26.32;33.41
43119;BME280;28729;49.838;8.650;2022-07-09T16:23:59;100396.97;;;26.19;33.46
43119;BME280;28729;49.838;8.650;2022-07-09T16:28:01;100393.03;;;26.02;33.96
43119;BME280;28729;49.838;8.650;2022-07-09T16:32:03;100392.25;;;25.93;34.30
43119;BME280;28729;49.838;8.650;2022-07-09T16:36:05;100392.81;;;25.78;34.11
43119;BME280;28729;49.838;8.650;2022-07-09T16:40:07;100404.50;;;25.59;34.49
43119;BME280;28729;49.838;8.650;2022-07-09T16:44:09;100408.34;;;25.45;35.04
43119;BME280;28729;49.838;8.650;2022-07-09T16:48:11;100406.03;;;25.30;35.50
43119;BME280;28729;49.838;8.650;2022-07-09T16:52:12;100423.16;;;25.08;36.98
43119;BME280;28729;49.838;8.650;2022-07-09T16:56:15;100431.75;;;24.85;37.34
43119;BME280;28729;49.838;8.650;2022-07-09T17:00:17;100441.00;;;24.60;39.87
43119;BME280;28729;49.838;8.650;2022-07-09T17:04:22;100447.63;;;24.06;42.68
43119;BME280;28729;49.838;8.650;2022-07-09T17:08:24;100464.47;;;23.44;46.03
43119;BME280;28729;49.838;8.650;2022-07-09T17:12:26;100477.63;;;23.12;47.17
43119;BME280;28729;49.838;8.650;2022-07-09T17:16:28;100472.06;;;22.85;50.04
43119;BME280;28729;49.838;8.650;2022-07-09T17:20:30;100472.91;;;22.71;50.27
43119;BME280;28729;49.838;8.650;2022-07-09T17:24:31;100483.66;;;22.42;53.18
43119;BME280;28729;49.838;8.650;2022-07-09T17:28:33;100487.88;;;21.98;57.51
43119;BME280;28729;49.838;8.650;2022-07-09T17:32:35;100496.28;;;21.32;63.97
43119;BME280;28729;49.838;8.650;2022-07-09T17:36:37;100494.47;;;20.85;63.39
43119;BME280;28729;49.838;8.650;2022-07-09T17:40:39;100499.91;;;20.33;69.89
43119;BME280;28729;49.838;8.650;2022-07-09T17:44:41;100491.03;;;20.02;71.94
43119;BME280;28729;49.838;8.650;2022-07-09T17:48:43;100491.69;;;19.94;72.21
43119;BME280;28729;49.838;8.650;2022-07-09T17:52:45;100487.19;;;19.64;76.63
43119;BME280;28729;49.838;8.650;2022-07-09T17:56:47;100490.63;;;19.55;78.89
43119;BME280;28729;49.838;8.650;2022-07-09T18:00:48;100481.19;;;19.46;79.97
43119;BME280;28729;49.838;8.650;2022-07-09T18:04:50;100480.44;;;19.35;81.21
43119;BME280;28729;49.838;8.650;2022-07-09T18:08:52;100485.81;;;19.27;82.33
43119;BME280;28729;49.838;8.650;2022-07-09T18:12:53;100475.22;;;19.24;82.59
43119;BME280;28729;49.838;8.650;2022-07-09T18:16:55;100483.34;;;19.20;83.71
43119;BME280;28729;49.838;8.650;2022-07-09T18:20:57;100493.16;;;19.18;84.58
43119;BME280;28729;49.838;8.650;2022-07-09T18:25:00;100482.88;;;19.13;88.13
43119;BME280;28729;49.838;8.650;2022-07-09T18:29:02;100485.94;;;19.11;87.30
43119;BME280;28729;49.838;8.650;2022-07-09T18:33:03;100471.38;;;19.15;87.26
43119;BME280;28729;49.838;8.650;2022-07-09T18:37:05;100476.63;;;19.21;87.18
43119;BME280;28729;49.838;8.650;2022-07-09T18:41:07;100464.34;;;19.22;86.78
43119;BME280;28729;49.838;8.650;2022-07-09T18:45:11;100475.22;;;19.24;87.60
43119;BME280;28729;49.838;8.650;2022-07-09T18:49:13;100471.84;;;19.27;88.26
43119;BME280;28729;49.838;8.650;2022-07-09T18:53:15;100471.81;;;19.32;88.45
43119;BME280;28729;49.838;8.650;2022-07-09T18:57:24;100474.03;;;19.35;88.40
43119;BME280;28729;49.838;8.650;2022-07-09T19:01:26;100467.28;;;19.36;88.08
43119;BME280;28729;49.838;8.650;2022-07-09T19:05:28;100474.84;;;19.35;88.03
43119;BME280;28729;49.838;8.650;2022-07-09T19:09:30;100467.59;;;19.34;88.85
43119;BME280;28729;49.838;8.650;2022-07-09T19:13:32;100474.34;;;19.28;89.18
43119;BME280;28729;49.838;8.650;2022-07-09T19:17:35;100471.09;;;19.16;90.02
43119;BME280;28729;49.838;8.650;2022-07-09T19:21:37;100479.84;;;19.04;90.83
43119;BME280;28729;49.838;8.650;2022-07-09T19:25:39;100478.81;;;18.90;90.72
43119;BME280;28729;49.838;8.650;2022-07-09T19:29:41;100480.59;;;18.76;93.01
43119;BME280;28729;49.838;8.650;2022-07-09T19:33:45;100488.44;;;18.63;93.32
43119;BME280;28729;49.838;8.650;2022-07-09T19:38:02;100490.19;;;18.49;94.25
43119;BME280;28729;49.838;8.650;2022-07-09T19:42:04;100489.69;;;18.37;95.19
43119;BME280;28729;49.838;8.650;2022-07-09T19:46:06;100499.75;;;18.28;95.56
43119;BME280;28729;49.838;8.650;2022-07-09T19:50:08;100505.91;;;18.19;95.92
43119;BME280;28729;49.838;8.650;2022-07-09T19:54:11;100517.66;;;18.11;96.55
43119;BME280;28729;49.838;8.650;2022-07-09T19:58:13;100510.97;;;18.02;96.95
43119;BME280;28729;49.838;8.650;2022-07-09T20:02:15;100515.75;;;17.91;97.10
43119;BME280;28729;49.838;8.650;2022-07-09T20:06:20;100531.94;;;17.79;98.78
43119;BME280;28729;49.838;8.650;2022-07-09T20:10:22;100526.06;;;17.70;98.68
43119;BME280;28729;49.838;8.650;2022-07-09T20:14:26;100519.94;;;17.58;100.00
43119;BME280;28729;49.838;8.650;2022-07-09T20:18:28;100518.81;;;17.49;100.00
43119;BME280;28729;49.838;8.650;2022-07-09T20:22:30;100513.53;;;17.42;100.00
43119;BME280;28729;49.838;8.650;2022-07-09T20:26:32;100520.78;;;17.38;100.00
43119;BME280;28729;49.838;8.650;2022-07-09T20:30:33;100520.75;;;17.28;100.00
43119;BME280;28729;49.838;8.650;2022-07-09T20:34:35;100510.47;;;17.23;100.00
43119;BME280;28729;49.838;8.650;2022-07-09T20:38:37;100508.78;;;17.17;100.00
43119;BME280;28729;49.838;8.650;2022-07-09T20:42:40;100513.22;;;17.13;100.00
43119;BME280;28729;49.838;8.650;2022-07-09T20:46:42;100522.41;;;17.08;100.00
43119;BME280;28729;49.838;8.650;2022-07-09T20:50:43;100521.00;;;17.06;100.00
43119;BME280;28729;49.838;8.650;2022-07-09T20:54:45;100520.16;;;17.00;100.00
43119;BME280;28729;49.838;8.650;2022-07-09T20:58:47;100529.34;;;16.96;100.00
43119;BME280;28729;49.838;8.650;2022-07-09T21:02:48;100528.50;;;16.90;100.00
43119;BME280;28729;49.838;8.650;2022-07-09T21:06:50;100526.53;;;16.85;100.00
43119;BME280;28729;49.838;8.650;2022-07-09T21:10:52;100532.06;;;16.80;100.00